Flight Track Log - Related Links

Times and Time Zones

All times are in EDT time to prevent confusion due to time zone crossing. See the EJA941 flight status page for this flight to view local times or setup timezone preferences in your user account.

Time Position Orientation Groundspeed Altitude Reporting Facility
EDT Latitude Longitude Course Direction KTS MPH feet Rate Location/Type
Tue 12:01:06 AM 41.7283 -87.7181 183° South 185 213 3,500  Level Chicago Center
Tue 12:02:07 AM 41.6814 -87.7817 225° Southwest 237 273 6,400 3,174 Climbing Chicago Center
Tue 12:03:07 AM 41.6292 -87.8561 227° Southwest 268 308 9,900 2,975 Climbing Chicago Center
Tue 12:04:08 AM 41.5706 -87.9400 227° Southwest 301 346 12,400 2,410 Climbing Chicago Center
Tue 12:05:09 AM 41.4858 -88.0014 208° Southwest 347 399 14,800 2,430 Climbing Chicago Center
Tue 12:06:09 AM 41.3881 -88.0600 204° Southwest 358 412 17,300 2,033 Climbing Chicago Center
Tue 12:07:10 AM 41.2925 -88.1131 203° Southwest 363 418 18,900 1,636 Climbing Chicago Center
Tue 12:08:10 AM 41.1900 -88.1722 203° Southwest 394 453 20,600 1,537 Climbing Chicago Center
Tue 12:09:11 AM 41.0844 -88.2328 203° Southwest 408 470 22,000 1,623 Climbing Chicago Center
Tue 12:10:12 AM 40.9731 -88.2950 203° Southwest 434 499 23,900 1,785 Climbing Chicago Center
Tue 12:11:12 AM 40.8622 -88.3592 204° Southwest 435 501 25,600 1,736 Climbing Chicago Center
Tue 12:12:13 AM 40.7481 -88.4239 203° Southwest 442 509 27,400 1,686 Climbing Chicago Center
Tue 12:13:13 AM 40.6319 -88.4900 203° Southwest 452 520 29,000 1,537 Climbing Chicago Center
Tue 12:14:14 AM 40.5250 -88.5836 214° Southwest 467 537 30,500 2,033 Climbing Chicago Center
Tue 12:15:14 AM 40.4528 -88.7339 238° Southwest 462 532 33,100 2,579 Climbing Chicago Center
Tue 12:16:15 AM 40.3836 -88.8731 237° Southwest 455 524 35,700 2,628 Climbing Chicago Center
Tue 12:17:15 AM 40.3167 -89.0050 236° Southwest 437 503 38,400 1,884 Climbing Chicago Center
Tue 12:18:16 AM 40.2489 -89.1422 237° Southwest 445 512 39,500 793 Climbing Chicago Center
Tue 12:19:16 AM 40.1761 -89.2825 236° Southwest 473 544 40,000 248 Climbing Chicago Center
Tue 12:20:17 AM 40.1017 -89.4311 237° Southwest 485 558 40,000  Level Chicago Center
Tue 12:21:17 AM 40.0264 -89.5781 236° Southwest 486 559 40,000  Level Chicago Center
Tue 12:22:17 AM 39.9517 -89.7258 237° Southwest 490 564 40,000  Level Chicago Center
Tue 12:23:19 AM 39.8742 -89.8772 236° Southwest 492 566 40,000  Level Kansas City Center
Tue 12:24:19 AM 39.7964 -90.0269 236° Southwest 496 571 40,000  Level Kansas City Center
Tue 12:25:20 AM 39.7256 -90.1642 236° Southwest 496 571 40,000  Level Kansas City Center
Tue 12:26:23 AM 39.6489 -90.3128 236° Southwest 497 572 40,000  Level Kansas City Center
Tue 12:27:23 AM 39.5564 -90.4914 236° Southwest 499 574 40,000  Level Kansas City Center
Tue 12:28:24 AM 39.4789 -90.6372 235° Southwest 497 572 40,000  Level Kansas City Center
Tue 12:29:25 AM 39.4008 -90.7853 236° Southwest 499 574 40,000  Level Kansas City Center
Tue 12:30:26 AM 39.3233 -90.9333 236° Southwest 501 577 40,000  Level Kansas City Center
Tue 12:31:25 AM 39.2444 -91.0800 235° Southwest 502 578 40,000  Level Kansas City Center
Tue 12:32:26 AM 39.1692 -91.2231 236° Southwest 493 567 40,000  Level Kansas City Center
Tue 12:33:28 AM 39.0908 -91.3683 235° Southwest 495 570 40,000  Level Kansas City Center
Tue 12:34:28 AM 39.0117 -91.5158 235° Southwest 500 575 40,000  Level Kansas City Center
Tue 12:35:26 AM 38.9331 -91.6614 235° Southwest 500 575 40,000  Level Kansas City Center
Tue 12:36:28 AM 38.8461 -91.8206 235° Southwest 500 575 40,000  Level Kansas City Center
Tue 12:37:30 AM 38.7669 -91.9672 235° Southwest 501 577 40,000  Level Kansas City Center
Tue 12:38:29 AM 38.6856 -92.1117 234° Southwest 500 575 40,000  Level Kansas City Center
Tue 12:39:32 AM 38.6047 -92.2586 235° Southwest 504 580 40,000  Level Kansas City Center
Tue 12:40:32 AM 38.5250 -92.4022 235° Southwest 501 577 40,000  Level Kansas City Center
Tue 12:41:33 AM 38.4442 -92.5450 234° Southwest 499 574 40,000  Level Kansas City Center
Tue 12:42:34 AM 38.3625 -92.6900 234° Southwest 503 579 40,000  Level Kansas City Center
Tue 12:43:34 AM 38.2828 -92.8333 235° Southwest 503 579 40,000  Level Kansas City Center
Tue 12:44:35 AM 38.2008 -92.9767 234° Southwest 503 579 40,000  Level Kansas City Center
Tue 12:45:36 AM 38.1014 -93.1511 234° Southwest 507 583 40,000  Level Kansas City Center
Tue 12:46:34 AM 38.0200 -93.2956 234° Southwest 504 580 40,000  Level Kansas City Center
Tue 12:47:37 AM 37.9358 -93.4411 234° Southwest 509 586 40,000  Level Kansas City Center
Tue 12:48:36 AM 37.8536 -93.5844 234° Southwest 507 583 40,000  Level Kansas City Center
Tue 12:49:36 AM 37.7697 -93.7289 234° Southwest 507 583 40,000  Level Kansas City Center
Tue 12:50:37 AM 37.6867 -93.8725 234° Southwest 508 585 40,000  Level Kansas City Center
Tue 12:51:38 AM 37.6031 -94.0172 234° Southwest 508 585 40,000  Level Kansas City Center
Tue 12:52:39 AM 37.5203 -94.1536 233° Southwest 507 583 40,000  Level Kansas City Center
Tue 12:53:40 AM 37.4381 -94.2975 234° Southwest 506 582 40,000  Level Kansas City Center
Tue 12:54:39 AM 37.3533 -94.4372 233° Southwest 503 579 40,000  Level Kansas City Center
Tue 12:55:41 AM 37.2703 -94.5789 234° Southwest 503 579 40,000  Level Kansas City Center
Tue 12:56:42 AM 37.1872 -94.7186 233° Southwest 501 577 40,000  Level Kansas City Center
Tue 12:57:42 AM 37.1031 -94.8575 233° Southwest 499 574 40,000 -500 Level Kansas City Center
Tue 12:58:42 AM 37.0203 -94.9958 233° Southwest 499 574 39,000 -496 Descending Kansas City Center
Tue 12:59:43 AM 36.9383 -95.1328 233° Southwest 495 570 39,000  Level Kansas City Center
Tue 01:00:44 AM 36.8536 -95.2733 233° Southwest 502 578 39,000  Level Kansas City Center
Tue 01:01:44 AM 36.7692 -95.4156 233° Southwest 510 587 39,000  Level Kansas City Center
Tue 01:02:45 AM 36.6850 -95.5558 233° Southwest 510 587 39,000  Level Kansas City Center
Tue 01:03:45 AM 36.5947 -95.7039 233° Southwest 515 593 39,000 -942 Level Kansas City Center
Tue 01:04:46 AM 36.4981 -95.8583 232° Southwest 503 579 37,100 -2,231 Descending Kansas City Center
Tue 01:05:46 AM 36.4161 -95.9903 232° Southwest 491 565 34,500 -2,529 Descending Kansas City Center
Tue 01:06:47 AM 36.3361 -96.1192 232° Southwest 479 551 32,000 -2,430 Descending Kansas City Center
Tue 01:07:47 AM 36.2569 -96.2475 233° Southwest 472 543 29,600 -2,500 Descending Kansas City Center
Tue 01:08:47 AM 36.1747 -96.3778 232° Southwest 476 548 27,000 -2,600 Descending Kansas City Center
Tue 01:09:47 AM 36.0908 -96.5108 232° Southwest 487 560 24,400 -2,380 Descending Kansas City Center
Tue 01:10:48 AM 36.0206 -96.6222 232° Southwest 482 555 22,200 -2,262 Descending Kansas City Center
Tue 01:11:49 AM 35.9406 -96.7478 232° Southwest 471 542 19,800 -2,500 Descending Kansas City Center
Tue 01:12:48 AM 35.8503 -96.8900 232° Southwest 441 507 17,200 -2,550 Descending Kansas City Center
Tue 01:13:49 AM 35.7892 -96.9939 234° Southwest 389 448 14,700 -2,213 Descending Kansas City Center
Tue 01:14:50 AM 35.7458 -97.0972 243° Southwest 356 410 12,700 -1,916 Descending Kansas City Center
Tue 01:15:48 AM 35.7067 -97.1919 243° Southwest 333 383 10,900 -1,736 Descending Kansas City Center
Tue 01:16:51 AM 35.6686 -97.2814 242° Southwest 310 357 9,200 -1,659 Descending Kansas City Center
Tue 01:17:51 AM 35.6319 -97.3683 243° Southwest 296 341 7,500 -1,650 Descending Kansas City Center
Tue 01:18:51 AM 35.5961 -97.4514 242° Southwest 284 327 5,900 -1,525 Descending Kansas City Center
Tue 01:19:49 AM 35.5650 -97.5264 243° Southwest 260 299 4,500 -1,289 Descending Kansas City Center
Tue 01:20:52 AM 35.5297 -97.5831 233° Southwest 228 262 3,300 -780 Descending Kansas City Center
Tue 01:21:52 AM 35.4875 -97.5894 187° South 167 192 2,900 -496 Descending Kansas City Center
Tue 01:22:53 AM 35.4536 -97.5908 182° South 141 162 2,300 -590 Descending Kansas City Center

Login

Don't have an account? Register now (free) for customized features, flight alerts, and more!